Date,TemperatureHighF,TemperatureAvgF,TemperatureLowF,DewpointHighF,DewpointAvgF,DewpointLowF,HumidityHigh,HumidityAvg,HumidityLow,PressureMaxIn,PressureMinIn,WindSpeedMaxMPH,WindSpeedAvgMPH,GustSpeedMaxMPH,PrecipitationSumIn
2013-1-1,27.9,18.3,15.4,17.9,14.4,7.6,100,85,53,30.61,30.49,12,3,0,0.00
2013-1-2,19.2,16.3,14.5,16.3,13.5,8.3,98,89,76,30.59,30.49,10,2,0,0.00
2013-1-3,28.6,15.9,8.8,16.5,8.8,-1.7,100,75,39,30.49,30.30,8,2,0,0.00
2013-1-4,42.8,25.5,15.3,22.6,12.0,-3.7,100,60,21,30.44,30.27,11,2,0,0.00
2013-1-5,25.8,21.7,18.0,23.3,18.6,12.2,100,88,64,30.37,30.24,6,1,0,0.00
2013-1-6,43.9,29.7,22.0,27.0,19.9,9.9,100,70,36,30.27,30.14,16,3,0,0.00
2013-1-7,52.3,45.2,34.9,28.6,18.4,0.5,58,36,13,30.17,30.03,29,10,0,0.00
2013-1-8,53.3,47.2,41.9,26.9,24.4,18.9,52,41,32,30.19,30.00,26,10,0,0.00
2013-1-9,51.9,40.7,28.5,23.7,13.1,-9.1,63,34,9,30.02,29.78,22,7,0,0.00
2013-1-10,40.0,29.4,22.8,29.3,15.5,-4.1,96,60,18,30.10,29.98,20,2,0,0.00
2013-1-11,35.0,25.7,18.0,16.4,10.4,1.6,89,53,29,30.31,30.08,16,3,0,0.00
2013-1-12,32.3,19.2,11.8,16.1,6.3,-2.5,88,59,26,30.41,30.27,11,2,0,0.00
2013-1-13,29.9,18.9,10.3,15.6,6.0,-7.2,91,60,21,30.50,30.36,10,2,0,0.00
2013-1-14,40.7,26.0,15.2,19.9,1.5,-16.5,72,39,10,30.50,30.34,16,2,0,0.00
2013-1-15,48.7,32.3,21.6,23.3,14.4,-5.2,98,54,12,30.64,30.50,11,1,0,0.00
2013-1-16,52.1,34.7,22.9,21.8,12.4,-14.6,85,46,7,30.64,30.46,10,1,0,0.00
2013-1-17,44.0,31.2,23.0,28.9,20.2,-0.6,100,66,18,30.56,30.38,12,1,0,0.00
2013-1-18,50.6,37.7,28.3,19.1,4.3,-15.2,56,28,8,30.42,30.29,15,4,0,0.00
2013-1-19,51.3,36.2,24.5,20.6,10.6,-14.5,76,40,7,30.45,30.30,14,1,0,0.00
2013-1-20,40.4,30.5,22.5,32.6,16.7,1.9,100,60,23,30.50,30.35,10,2,0,0.00
2013-1-21,32.1,22.4,15.4,30.9,18.4,12.2,100,86,45,30.42,30.25,9,2,0,0.00
2013-1-22,23.6,20.5,18.3,22.4,18.9,16.4,100,93,87,30.32,30.17,5,1,0,0.00
2013-1-23,31.5,26.1,22.0,27.8,22.1,16.1,97,85,61,30.20,29.98,7,1,0,0.00
2013-1-24,49.8,36.4,25.3,31.7,26.1,17.8,100,70,36,30.25,30.14,13,2,0,0.00
2013-1-25,50.6,44.5,40.2,41.9,33.5,20.1,100,66,42,30.17,29.99,15,6,0,0.04
2013-1-26,49.4,38.2,31.8,20.9,14.5,0.6,61,38,19,30.11,29.96,21,6,0,0.00
2013-1-27,49.3,33.9,26.1,27.5,17.7,1.4,99,55,22,30.16,30.06,16,4,0,0.00
2013-1-28,40.4,36.6,30.9,25.1,20.2,15.4,77,51,37,30.16,30.06,16,4,0,0.00
2013-1-29,47.0,42.0,37.6,23.2,20.0,11.4,55,41,28,30.38,30.14,30,8,0,0.00
2013-1-30,52.4,44.8,39.9,25.5,21.2,10.1,53,39,25,30.41,30.36,19,6,0,0.00
2013-1-31,51.9,40.1,31.4,33.2,25.6,15.8,97,59,28,30.42,30.29,11,2,0,0.00
2013-2-1,50.8,37.6,27.7,33.4,27.0,16.7,100,70,33,30.46,30.30,8,1,0,0.00
2013-2-2,45.3,34.8,25.9,31.6,25.1,17.6,100,71,35,30.48,30.30,7,1,0,0.00
2013-2-3,56.6,42.6,28.3,32.9,17.0,-7.1,94,45,9,30.32,30.17,16,3,0,0.00
2013-2-4,50.7,41.9,33.9,28.2,20.0,5.0,69,43,17,30.19,30.00,9,2,0,0.00
2013-2-5,49.7,42.4,34.4,23.3,15.5,-7.1,60,35,11,30.10,29.94,21,6,0,0.00
2013-2-6,51.5,40.8,33.9,22.7,13.0,-6.2,60,35,12,30.16,29.96,20,4,0,0.00
2013-2-7,47.4,36.4,27.4,24.6,14.0,-11.8,82,44,10,30.16,29.95,12,3,0,0.00
2013-2-8,44.4,32.0,21.8,24.7,12.2,-9.9,97,52,11,30.24,30.15,9,2,0,0.00
2013-2-9,48.5,33.3,21.8,26.5,16.4,5.1,88,54,21,30.27,30.15,20,3,0,0.00
2013-2-10,50.1,34.8,24.6,27.5,15.1,-10.5,100,55,9,30.35,30.21,7,1,0,0.00
2013-2-11,53.7,36.2,23.5,28.8,18.8,1.5,98,55,16,30.37,30.22,29,4,0,0.00
2013-2-12,52.9,39.9,30.7,28.8,20.5,5.3,83,50,18,30.42,30.35,13,3,0,0.00
2013-2-13,50.1,42.4,33.0,29.8,22.1,11.5,82,46,22,30.48,30.35,18,6,0,0.00
2013-2-14,58.9,40.2,27.8,34.4,26.0,6.2,100,64,16,30.56,30.42,17,2,0,0.00
2013-2-15,53.8,40.7,28.5,35.8,27.5,18.0,100,66,28,30.54,30.27,7,1,0,0.00
2013-2-16,54.6,41.5,31.1,36.0,18.6,-6.1,94,45,10,30.29,30.17,21,6,0,0.00
2013-2-17,45.6,34.8,25.8,24.6,13.8,-8.3,87,46,12,30.27,30.13,14,3,0,0.00
2013-2-18,40.2,32.7,25.7,26.5,17.3,6.1,100,56,26,30.15,29.82,11,2,0,0.00
2013-2-19,44.9,32.7,25.3,24.7,16.8,0.5,92,57,19,30.04,29.78,15,2,0,0.00
2013-2-20,45.1,32.9,22.0,23.3,14.7,-10.3,98,54,12,30.14,30.00,20,3,0,0.00
2013-2-21,41.1,34.6,25.5,26.3,17.5,5.9,96,52,25,30.18,30.12,20,5,0,0.00
2013-2-22,47.2,39.7,31.1,28.4,18.6,6.9,81,43,28,30.18,29.90,29,9,0,0.00
2013-2-23,45.3,35.1,28.7,21.6,10.5,-7.5,65,38,13,30.40,30.07,20,6,0,0.00
2013-2-24,50.0,35.9,23.4,23.5,12.8,-9.3,93,46,9,30.43,30.10,12,4,0,0.00
2013-2-25,43.3,36.5,28.8,29.0,19.4,-6.0,94,52,15,30.35,30.05,26,7,0,0.00
2013-2-26,49.9,37.1,24.2,26.1,4.1,-17.3,95,36,7,30.40,30.21,12,3,0,0.00
2013-2-27,50.8,42.5,35.2,23.4,7.7,-18.5,42,25,7,30.32,30.24,17,6,0,0.00
2013-2-28,55.8,48.4,41.8,32.0,26.1,18.7,52,42,30,30.45,30.23,15,7,0,0.00
2013-3-1,64.5,51.5,41.3,29.4,20.9,-2.7,56,34,7,30.47,30.32,19,5,0,0.00
2013-3-2,56.2,44.6,37.4,27.9,24.5,11.2,66,47,17,30.34,30.15,22,4,0,0.00
2013-3-3,48.2,37.5,27.3,27.1,5.5,-19.2,60,32,7,30.29,30.16,18,5,0,0.00
2013-3-4,48.2,34.2,21.0,17.8,5.3,-17.4,80,38,7,30.30,30.05,9,2,0,0.00
2013-3-5,43.3,34.4,27.0,30.7,16.3,-0.8,93,50,17,30.07,29.78,11,2,0,0.00
2013-3-6,39.6,35.1,30.9,32.4,24.8,12.2,100,70,35,30.01,29.63,20,5,0,0.20
2013-3-7,52.1,38.2,27.5,25.0,12.6,-12.3,77,39,8,30.14,30.00,26,4,0,0.00
2013-3-8,50.5,37.9,27.3,28.6,16.5,-8.6,99,49,10,30.24,30.05,15,2,0,0.00
2013-3-9,58.2,40.4,25.8,23.0,8.4,-15.3,83,36,6,30.49,30.23,9,2,0,0.00
2013-3-10,61.1,42.9,28.9,33.0,16.3,-11.7,73,40,6,30.51,30.32,21,4,0,0.00
2013-3-11,56.1,45.9,37.3,38.8,32.0,23.5,95,62,30,30.39,30.24,13,2,0,0.00
2013-3-12,64.9,50.1,38.2,38.2,20.7,-7.9,91,41,6,30.27,30.15,19,4,0,0.00
2013-3-13,70.1,54.2,43.1,32.2,18.5,-9.2,58,30,5,30.24,30.15,12,3,0,0.00
2013-3-14,69.2,52.3,40.7,33.0,18.1,-10.5,71,35,6,30.21,30.08,28,5,0,0.00
2013-3-15,61.4,51.3,41.3,32.7,20.3,-5.8,66,33,9,30.23,30.17,18,6,0,0.00
2013-3-16,52.7,44.8,34.6,31.1,17.3,-3.4,75,35,13,30.18,29.98,25,8,0,0.00
2013-3-17,46.6,36.8,30.9,21.3,6.1,-11.2,55,29,12,30.21,30.09,22,7,0,0.00
2013-3-18,53.0,38.2,25.4,26.9,12.6,-15.1,97,45,6,30.27,30.15,12,3,0,0.00
2013-3-19,46.3,37.4,29.7,35.5,17.6,-0.6,94,50,15,30.22,29.84,9,1,0,0.12
2013-3-20,54.2,43.9,36.7,40.5,26.0,5.4,98,52,19,29.91,29.65,35,9,0,0.12
2013-3-21,44.8,36.0,30.8,18.9,10.9,-3.2,57,36,15,30.24,29.91,24,8,0,0.00
2013-3-22,41.5,33.3,26.7,22.8,7.7,-18.1,81,41,8,30.35,30.22,28,6,0,0.00
2013-3-23,46.3,34.8,27.2,23.0,9.8,-18.4,81,42,7,30.36,30.20,12,2,0,0.00
2013-3-24,48.3,37.0,27.8,22.7,11.7,-10.9,75,41,9,30.30,30.16,13,3,0,0.00
2013-3-25,51.6,42.0,31.3,25.0,12.3,-7.6,73,33,11,30.17,29.97,15,3,0,0.00
2013-3-26,52.2,44.1,38.2,34.4,24.6,14.0,77,48,26,30.07,29.98,10,2,0,0.00
2013-3-27,58.6,45.5,34.7,42.3,31.6,14.2,100,64,20,30.07,29.95,16,2,0,0.08
2013-3-28,60.4,47.6,39.7,41.7,34.4,17.3,95,64,21,30.17,30.05,14,2,0,0.08
2013-3-29,62.4,51.6,44.3,44.0,34.1,15.6,96,58,20,30.25,30.17,10,2,0,0.04
2013-3-30,70.3,52.9,36.4,41.9,28.8,8.5,100,50,10,30.28,30.11,14,3,0,0.00
2013-3-31,68.8,54.1,39.5,38.8,22.6,-0.6,92,39,7,30.14,29.96,23,5,0,0.00
2013-4-1,69.5,53.2,41.4,42.7,29.7,8.1,99,48,11,30.18,30.02,19,3,0,0.00
2013-4-2,67.5,50.8,37.1,41.3,26.6,0.7,100,50,8,30.22,30.13,17,3,0,0.00
2013-4-3,67.5,52.8,35.9,38.9,19.7,-8.3,100,41,5,30.22,30.02,12,2,0,0.00
2013-4-4,63.9,51.7,44.2,40.0,31.1,17.8,72,46,17,30.03,29.75,23,4,0,0.08
2013-4-5,58.7,49.3,43.5,34.5,26.4,14.0,69,42,20,30.03,29.95,22,7,0,0.00
2013-4-6,55.8,46.5,40.6,36.0,25.1,8.5,83,44,18,30.04,29.85,25,7,0,0.04
2013-4-7,50.3,42.5,35.1,38.2,22.2,5.0,89,46,20,29.95,29.71,32,8,0,0.00
2013-4-8,52.4,40.7,30.1,27.6,14.2,-4.0,85,39,11,30.27,29.95,26,7,0,0.00
2013-4-9,62.0,44.7,27.1,30.6,14.9,-12.7,100,43,6,30.38,30.23,9,2,0,0.00
2013-4-10,60.8,50.9,40.4,32.7,20.6,-4.1,60,32,8,30.26,30.13,29,8,0,0.00
2013-4-11,57.4,41.7,29.4,29.8,16.8,-8.8,97,44,8,30.31,30.16,21,4,0,0.00
2013-4-12,61.8,45.0,29.3,31.7,15.5,-11.0,100,44,6,30.19,29.81,35,5,0,0.00
2013-4-13,48.1,41.2,34.8,22.5,5.5,-17.2,42,25,7,30.11,29.82,30,10,0,0.00
2013-4-14,49.0,37.6,31.1,28.5,14.4,-15.7,77,43,9,30.12,29.91,17,4,0,0.00
2013-4-15,48.5,35.9,32.0,31.7,25.3,2.2,95,68,19,30.18,29.95,22,4,0,0.00
2013-4-16,49.4,38.0,30.7,30.8,18.4,-11.3,94,53,9,30.38,30.17,23,5,0,0.00
2013-4-17,56.6,41.2,27.7,28.0,10.5,-15.3,81,38,7,30.48,30.36,22,4,20,0.00
2013-4-18,64.3,48.7,35.8,27.1,18.7,-2.7,61,34,10,30.43,30.28,14,3,7,0.00
2013-4-19,61.2,51.4,43.4,30.8,24.3,11.0,52,36,17,30.29,30.15,30,9,0,0.00
2013-4-20,62.4,49.3,39.9,29.5,16.9,-3.8,62,31,9,30.27,30.18,21,6,0,0.00
2013-4-21,64.5,47.7,33.6,35.8,22.6,0.6,95,44,10,30.26,30.16,24,5,0,0.00
2013-4-22,55.9,45.0,35.2,31.1,7.5,-15.8,83,29,7,30.44,30.25,29,6,0,0.00
2013-4-23,65.7,45.8,26.5,17.1,1.0,-16.3,60,22,5,30.45,30.15,17,4,0,0.00
2013-4-24,71.0,50.7,32.4,17.9,0.4,-14.3,50,17,5,30.36,30.07,11,2,0,0.00
2013-4-25,74.1,56.0,37.0,20.5,7.3,-11.0,50,19,4,30.18,30.05,27,5,0,0.00
2013-4-26,81.9,60.6,40.3,28.4,9.7,-10.4,61,20,4,30.27,30.17,17,4,0,0.00
2013-4-27,72.5,59.4,43.1,25.3,8.0,-8.4,48,17,5,30.28,30.16,26,7,0,0.00
2013-4-28,65.8,54.5,42.6,27.5,10.1,-9.3,52,20,6,30.22,30.10,26,7,0,0.00
2013-4-29,59.2,50.8,38.1,27.5,9.0,-13.9,41,22,6,30.16,30.02,29,9,0,0.00
2013-4-30,53.4,40.7,29.0,22.3,4.4,-17.6,74,28,6,30.42,30.16,27,8,0,0.00
2013-5-1,63.7,46.3,27.8,23.2,5.1,-15.7,78,28,5,30.55,30.42,13,3,0,0.00
2013-5-2,76.1,57.1,36.5,24.7,3.6,-13.1,53,17,5,30.56,30.24,14,2,0,0.00
2013-5-3,74.2,59.1,41.7,23.7,6.9,-11.4,46,16,4,30.31,30.18,20,3,0,0.00
2013-5-4,71.5,58.4,41.9,30.7,7.3,-7.2,56,18,5,30.22,30.01,29,7,0,0.00
2013-5-5,75.3,62.9,49.6,18.2,2.8,-9.2,28,10,4,30.03,29.84,25,8,0,0.00
2013-5-6,82.1,66.5,48.4,27.5,9.2,-6.6,42,14,4,29.96,29.79,20,5,0,0.00
2013-5-7,83.6,65.7,49.8,38.9,18.7,-5.0,60,22,4,30.04,29.87,24,5,0,0.00
2013-5-8,84.1,65.3,47.1,41.1,21.3,-5.7,75,28,4,30.13,29.98,20,3,0,0.00
2013-5-9,88.0,67.7,50.4,41.7,22.4,-3.6,68,26,4,30.18,30.06,17,3,0,0.00
2013-5-10,89.4,70.0,52.2,39.0,21.4,-3.2,54,22,4,30.24,30.11,24,4,0,0.00
2013-5-11,89.1,72.8,55.9,38.9,23.0,-0.1,51,21,4,30.23,30.05,19,3,0,0.00
2013-5-12,82.3,70.0,58.5,43.3,24.5,-0.1,53,22,5,30.16,30.02,32,7,0,0.00
2013-5-13,67.5,58.4,49.3,39.1,25.2,3.1,48,30,10,30.20,30.08,26,6,0,0.00
2013-5-14,69.8,54.7,39.9,33.3,14.3,-10.3,71,27,5,30.21,30.06,21,4,0,0.00
2013-5-15,63.3,51.9,41.7,36.4,24.4,-8.7,72,38,7,30.16,30.04,16,3,0,0.00
2013-5-16,66.8,52.2,44.1,47.1,30.6,0.1,95,51,8,30.08,29.92,19,3,0,0.16
2013-5-17,62.6,51.1,45.8,46.3,29.0,-0.7,97,51,10,30.12,30.01,28,5,0,0.12
2013-5-18,61.4,49.7,39.4,37.6,25.9,13.3,87,44,19,30.26,30.12,21,3,0,0.00
2013-5-19,70.2,51.8,38.1,38.1,20.4,-8.9,95,40,6,30.35,30.24,25,4,0,0.00
2013-5-20,78.8,57.8,36.2,34.3,15.0,-12.0,88,31,4,30.35,29.94,18,3,0,0.00
2013-5-21,59.8,50.0,37.4,29.6,13.3,-10.0,44,25,8,29.99,29.80,27,9,0,0.00
2013-5-22,47.1,42.3,36.1,19.5,14.0,6.2,41,32,23,30.02,29.96,20,8,0,0.00
2013-5-23,57.9,47.5,38.1,29.3,12.8,-11.9,57,28,6,30.08,29.97,17,6,0,0.00
2013-5-24,60.7,49.4,41.2,30.2,13.6,-10.1,60,28,7,30.10,30.02,24,7,0,0.00
2013-5-25,67.9,51.4,34.2,43.4,18.6,-8.8,93,40,5,30.13,29.96,15,3,0,0.04
2013-5-26,65.3,53.5,47.1,46.5,29.1,-0.0,95,48,11,30.08,30.00,26,6,0,0.16
2013-5-27,64.9,51.6,43.7,42.7,32.0,19.5,86,50,21,30.07,29.82,19,4,0,0.08
2013-5-28,65.8,55.7,48.6,30.4,19.0,-4.4,46,26,7,29.96,29.82,25,7,0,0.00
2013-5-29,62.2,52.2,46.1,45.0,26.4,9.0,93,41,15,30.08,29.76,41,8,0,0.16
2013-5-30,47.1,44.3,44.1,24.0,22.6,22.2,44,42,38,30.10,30.08,11,2,0,0.00
2013-5-31,70.8,54.5,35.9,34.5,15.3,-9.8,89,32,5,30.32,30.10,13,4,0,0.00
2013-6-1,79.1,61.4,44.3,35.4,18.6,-10.1,65,27,4,30.25,30.04,21,4,0,0.00
2013-6-2,73.4,59.7,46.3,43.6,20.4,-7.2,85,30,5,30.11,29.98,32,7,0,0.00
2013-6-3,80.3,60.8,41.3,35.2,11.0,-10.2,74,24,4,30.15,30.00,23,4,0,0.00
2013-6-4,83.3,64.8,44.0,30.1,9.2,-8.8,54,17,4,30.17,30.04,14,3,0,0.00
2013-6-5,91.1,70.5,51.1,32.5,14.0,-5.0,45,16,4,30.16,29.97,19,4,0,0.00
2013-6-6,92.5,70.8,52.7,39.1,19.8,-2.6,56,21,4,30.11,29.94,23,4,0,0.00
2013-6-7,88.9,69.9,54.4,40.3,19.9,-4.1,57,21,4,30.16,30.02,26,5,0,0.00
2013-6-8,88.8,69.8,48.0,39.1,17.1,-6.5,63,22,4,30.17,30.00,19,4,0,0.00
2013-6-9,82.7,66.5,52.3,36.2,14.9,-6.1,54,18,4,30.10,29.92,22,5,0,0.00
2013-6-10,83.0,61.3,43.5,30.4,11.8,-12.2,55,20,4,30.01,29.80,22,5,0,0.00
2013-6-11,67.4,54.8,46.6,32.3,13.8,-10.3,55,24,5,30.16,29.94,23,8,0,0.00
2013-6-12,66.2,52.3,38.9,32.2,15.3,-11.3,72,30,5,30.18,30.10,24,4,0,0.00
2013-6-13,65.5,51.1,40.2,33.6,21.1,-0.6,74,36,9,30.27,30.16,26,6,0,0.00
2013-6-14,77.1,57.9,37.9,38.8,13.5,-13.4,95,30,4,30.29,30.03,17,3,0,0.00
2013-6-15,86.6,65.4,45.9,34.7,16.4,-9.1,59,22,4,30.07,29.88,28,4,0,0.00
2013-6-16,84.1,66.3,51.3,38.2,20.6,-7.6,57,23,4,30.15,29.99,36,4,0,0.00
2013-6-17,81.0,64.1,49.5,43.2,23.1,-2.9,74,27,5,30.15,29.93,21,5,0,0.00
2013-6-18,67.1,56.8,50.1,35.9,26.9,-0.1,49,33,8,30.04,29.93,15,3,0,0.00
2013-6-19,66.0,54.4,48.2,36.2,18.8,-5.1,63,28,7,30.12,29.96,27,8,0,0.00
2013-6-20,69.1,55.1,45.0,28.3,13.0,-10.7,43,23,5,30.16,30.04,23,6,0,0.00
2013-6-21,67.3,54.6,45.6,38.9,24.9,5.5,72,36,11,30.18,30.14,18,4,0,0.00
2013-6-22,80.8,62.1,41.5,40.0,15.7,-7.3,85,29,4,30.18,29.92,18,4,0,0.00
2013-6-23,71.0,62.3,56.0,56.9,36.9,14.1,100,46,13,29.95,29.76,12,2,0,0.28
2013-6-24,66.4,56.9,50.4,56.5,37.5,21.3,100,52,22,29.82,29.72,16,3,0,0.12
2013-6-25,71.1,58.6,52.5,53.1,40.2,21.8,100,54,19,29.98,29.79,12,2,0,0.20
2013-6-26,72.6,61.1,53.7,48.4,39.3,21.3,81,48,17,30.16,29.97,20,2,0,0.00
2013-6-27,86.9,69.5,53.1,52.0,33.4,8.8,86,35,6,30.23,30.14,18,4,0,0.00
2013-6-28,93.8,75.6,58.3,51.3,31.6,2.2,75,29,4,30.25,30.05,26,4,0,0.00
2013-6-29,90.5,77.5,64.2,51.6,30.1,1.5,63,24,4,30.16,30.03,17,5,0,0.00
2013-6-30,99.1,79.1,59.8,45.1,23.8,-0.6,55,20,3,30.13,29.91,24,4,0,0.00
2013-7-1,102.2,85.4,73.7,46.4,23.3,-0.5,33,13,3,30.09,29.96,24,6,0,0.00
2013-7-2,102.8,83.1,66.1,50.7,29.7,1.6,50,21,3,30.14,30.00,23,5,0,0.00
2013-7-3,93.3,76.9,63.5,47.9,21.7,-5.8,56,19,3,30.16,30.00,19,4,0,0.00
2013-7-4,85.6,69.8,53.5,29.3,11.1,-7.7,37,13,4,30.12,29.94,28,6,0,0.00
2013-7-5,82.8,64.4,49.0,40.9,14.5,-8.2,68,22,4,30.06,29.90,25,6,0,0.00
2013-7-6,86.9,66.7,46.2,35.2,13.9,-8.9,61,19,4,30.03,29.83,19,4,0,0.00
2013-7-7,90.7,71.4,53.7,40.4,19.5,-5.3,55,20,4,29.99,29.82,20,3,0,0.00
2013-7-8,90.1,71.0,51.6,40.9,17.2,-6.6,63,20,4,30.12,29.99,23,4,0,0.00
2013-7-9,96.9,76.1,54.9,36.2,18.8,-4.7,44,17,4,30.17,29.97,26,4,0,0.00
2013-7-10,94.0,75.7,58.5,39.7,17.9,-3.2,46,16,4,30.10,29.89,25,6,0,0.00
2013-7-11,84.2,68.7,54.1,39.2,13.4,-7.7,55,17,4,30.06,29.91,25,5,0,0.00
2013-7-12,81.5,63.1,46.8,29.4,9.9,-8.7,48,17,5,30.12,29.94,27,5,0,0.00
2013-7-13,84.9,64.9,46.0,35.4,11.1,-11.7,57,20,4,30.19,30.05,19,4,0,0.00
2013-7-14,92.6,71.8,50.3,12.5,2.4,-10.8,17,7,4,30.18,29.95,18,4,6,0.00
2013-7-15,91.2,72.9,53.6,30.8,10.0,-7.3,40,12,4,30.07,29.88,20,5,0,0.00
2013-7-16,88.4,74.8,65.6,23.9,3.5,-7.2,16,6,4,30.00,29.87,22,8,0,0.00
2013-7-17,92.3,76.3,58.6,36.0,12.6,-4.6,42,11,4,30.18,29.99,24,6,0,0.00
2013-7-18,96.1,77.2,53.9,30.9,12.2,-4.2,36,11,4,30.20,30.02,27,6,0,0.00
2013-7-19,98.5,78.0,56.7,31.7,13.1,-3.1,38,12,4,30.16,29.96,21,4,0,0.00
2013-7-20,97.7,77.6,56.9,31.0,11.9,-5.1,34,11,4,30.08,29.90,24,5,0,0.00
2013-7-21,97.2,75.7,51.7,17.0,6.5,-7.4,24,8,4,30.01,29.85,18,4,0,0.00
2013-7-22,97.1,76.7,54.9,31.3,11.6,-5.5,38,11,4,30.06,29.93,22,4,0,0.00
2013-7-23,100.8,77.6,55.5,25.7,11.6,-7.7,29,10,4,30.11,29.92,16,3,0,0.00
2013-7-24,98.8,78.9,63.2,15.5,6.5,-7.3,13,6,4,30.11,29.96,17,3,0,0.00
2013-7-25,101.2,78.3,56.3,26.7,11.9,-4.4,28,10,4,30.14,30.00,21,4,0,0.00
2013-7-26,98.5,79.4,63.0,21.0,7.9,-5.6,19,7,5,30.16,30.02,25,4,0,0.00
2013-7-27,90.7,72.0,53.5,24.4,7.1,-5.4,31,10,4,30.17,29.95,24,5,0,0.00
2013-7-28,84.2,65.7,49.0,27.1,10.3,-8.6,39,15,4,30.07,29.89,26,4,0,0.00
2013-7-29,90.1,68.8,48.8,35.9,14.5,-7.8,57,19,4,30.04,29.89,19,4,14,0.00
2013-7-30,90.0,70.5,51.8,33.5,17.0,-7.2,45,18,4,30.16,30.03,26,4,6,0.00
2013-7-31,86.9,72.0,61.0,35.0,15.8,-4.5,34,15,4,30.15,29.98,28,2,0,0.00
2013-8-1,77.8,64.4,56.1,43.7,28.9,4.6,53,29,8,30.12,29.99,27,4,0,0.00
2013-8-2,81.2,62.5,47.1,42.8,23.0,-6.2,80,31,4,30.17,30.03,19,3,0,0.00
2013-8-3,86.8,68.5,49.3,42.8,19.5,-5.9,71,26,4,30.17,30.00,22,4,0,0.00
2013-8-4,92.5,74.0,55.6,37.7,19.6,-4.4,49,18,4,30.13,29.92,27,4,0,0.00
2013-8-5,94.9,75.1,58.3,35.3,18.9,-1.3,41,16,4,30.09,29.93,22,3,0,0.00
2013-8-6,95.8,75.0,56.0,40.3,18.1,-2.0,52,17,4,30.10,29.91,22,4,0,0.00
2013-8-7,92.2,73.9,57.0,28.5,11.0,-5.5,31,11,4,30.09,29.95,20,4,0,0.00
2013-8-8,90.6,75.8,62.6,34.1,15.4,-3.9,34,13,4,30.07,29.91,20,5,0,0.00
2013-8-9,95.3,71.6,58.7,47.7,25.0,-3.7,66,23,4,30.04,29.83,26,4,0,0.04
2013-8-10,77.8,62.7,51.8,52.7,36.3,11.4,92,46,9,30.11,29.98,23,3,0,0.00
2013-8-11,83.7,66.6,51.9,49.3,27.6,-3.0,85,33,4,30.14,29.98,18,3,0,0.00
2013-8-12,88.8,69.7,53.2,45.9,24.2,-3.4,73,28,4,30.11,29.97,20,4,0,0.00
2013-8-13,93.1,71.8,52.2,36.7,18.3,-2.6,45,19,4,30.16,29.96,21,4,0,0.00
2013-8-14,91.8,73.9,59.3,35.6,17.4,-1.6,38,15,4,30.06,29.91,20,4,0,0.00
2013-8-15,93.5,71.9,55.9,41.2,22.2,-3.1,46,21,4,30.07,29.92,21,4,0,0.00
2013-8-16,87.0,72.7,61.1,45.5,33.6,6.8,54,28,6,30.11,29.98,20,3,0,0.00
2013-8-17,88.5,70.7,56.9,46.4,28.3,0.1,59,28,4,30.15,30.00,20,4,0,0.00
2013-8-18,92.0,71.2,53.7,45.4,25.1,-3.3,68,27,4,30.18,30.02,21,4,0,0.00
2013-8-19,91.4,71.8,54.7,41.1,21.6,-3.6,58,22,4,30.17,30.01,19,4,0,0.00
2013-8-20,89.1,71.0,52.5,43.4,18.2,-6.1,64,22,5,30.17,29.99,15,3,0,0.00
2013-8-21,87.5,71.0,55.0,23.5,9.0,-6.3,28,11,4,30.12,29.96,19,4,0,0.00
2013-8-22,83.2,67.8,58.7,51.1,18.7,-5.9,63,20,4,30.05,29.94,21,3,0,0.04
2013-8-23,83.0,68.8,57.6,51.6,27.3,-2.7,74,29,5,29.99,29.86,27,6,0,0.00
2013-8-24,85.2,65.2,53.6,46.4,27.2,-2.9,73,33,5,29.97,29.82,22,4,9,0.00
2013-8-25,76.7,61.0,54.4,54.0,40.6,14.9,94,50,12,30.02,29.90,22,3,8,0.35
2013-8-26,80.1,62.5,49.5,53.4,33.7,6.5,100,48,7,30.04,29.95,24,4,0,0.00
2013-8-27,84.3,66.4,50.7,43.7,27.3,-2.7,74,31,4,30.06,29.83,18,4,0,0.00
2013-8-28,85.6,70.6,57.0,47.9,28.7,0.2,70,28,4,29.98,29.87,17,4,0,0.00
2013-8-29,84.7,69.2,60.2,45.1,33.8,2.7,56,31,5,30.14,29.96,25,4,0,0.00
2013-8-30,68.8,63.9,58.2,43.0,36.9,28.4,55,37,23,30.19,30.13,8,3,0,0.00
2013-9-30,48.2,47.2,45.9,25.2,22.5,20.2,43,37,34,30.07,30.05,13,7,0,0.00
2013-10-1,56.5,47.0,38.2,37.3,20.2,-0.7,74,36,11,30.23,30.05,17,6,0,0.00
2013-10-2,52.3,40.9,31.6,36.3,24.3,4.3,100,58,15,30.23,30.06,17,2,0,0.00
2013-10-3,55.4,44.2,33.9,40.1,25.6,8.1,100,58,16,30.44,30.17,9,1,0,0.00
2013-10-4,57.7,38.6,31.7,35.4,28.0,-5.8,100,75,8,30.55,30.44,9,1,0,0.00
2013-10-7,57.1,50.3,45.0,24.8,19.7,11.5,41,30,18,30.16,30.09,20,8,0,0.00
2013-10-8,54.6,45.2,39.1,32.9,24.6,16.2,75,46,25,30.16,29.99,17,5,0,0.00
2013-10-9,50.0,42.5,36.0,37.9,27.6,17.6,99,59,30,30.14,30.03,11,2,0,0.00
2013-10-10,60.6,45.8,34.6,34.7,21.9,-4.9,97,48,8,30.13,29.97,22,3,0,0.00
2013-10-11,56.1,44.0,33.3,38.8,27.1,12.0,100,58,19,30.18,30.09,10,2,0,0.00
2013-10-12,52.6,42.7,35.3,37.9,30.3,12.2,100,66,20,30.18,30.08,11,2,0,0.00
2013-10-13,56.9,47.1,40.0,35.1,26.4,3.5,71,48,13,30.34,30.18,10,2,0,0.00
2013-10-14,59.2,44.0,32.4,38.3,20.8,-3.7,100,52,9,30.44,30.34,13,2,0,0.00
2013-10-15,59.9,44.4,31.1,32.4,16.7,-10.1,96,44,6,30.45,30.20,11,2,0,0.00
2013-10-16,60.3,46.0,33.7,32.1,16.9,-10.5,89,42,6,30.23,30.15,13,2,0,0.00
2013-10-17,61.6,46.0,32.9,35.4,20.3,-7.3,99,47,6,30.32,30.21,12,1,0,0.00
2013-10-18,61.4,46.1,32.5,34.5,22.6,1.4,100,50,10,30.35,30.18,7,1,0,0.00
2013-10-19,71.7,50.9,33.8,36.6,20.1,-8.8,99,44,4,30.24,30.10,6,1,0,0.00
2013-10-20,69.5,51.9,36.3,32.6,17.3,-8.2,81,35,5,30.25,30.15,6,1,0,0.00
2013-10-21,69.6,52.8,37.9,34.5,20.1,-6.2,82,36,5,30.25,30.15,8,1,0,0.00
2013-10-22,68.2,52.0,37.5,38.7,22.9,-4.2,95,42,6,30.24,30.11,6,1,0,0.00
2013-10-23,65.9,51.2,37.8,39.4,25.2,-0.6,100,45,7,30.19,30.08,8,1,0,1.00
2013-10-24,64.4,49.9,36.6,42.2,29.9,11.0,100,56,13,30.19,30.08,6,1,0,0.00
2013-10-25,65.8,50.5,37.3,40.8,27.3,-1.0,100,52,7,30.28,30.18,8,1,0,0.00
2013-10-26,63.5,48.6,35.8,38.4,26.5,1.6,97,52,9,30.33,30.17,10,1,0,0.00
2013-10-27,52.5,42.3,35.9,44.6,34.2,19.8,100,76,32,30.18,29.82,23,6,0,1.00
2013-10-28,43.6,39.1,32.9,43.6,15.3,-3.3,100,41,15,30.04,29.87,26,9,0,1.00
2013-10-29,45.8,36.1,27.2,23.8,9.7,-15.7,75,41,7,30.14,30.04,6,1,0,1.00
2013-10-30,55.6,40.5,27.5,28.8,17.5,-5.4,98,49,8,30.19,30.12,9,2,0,0.00
2013-10-31,65.3,49.7,39.6,45.1,30.2,20.4,100,50,23,30.29,30.17,19,4,0,0.00
2013-11-1,59.9,45.8,32.4,42.4,31.2,18.3,100,65,21,30.34,30.01,11,1,0,0.00
2013-11-2,53.2,45.0,35.1,34.6,23.3,3.8,82,44,17,30.11,29.82,34,10,0,0.00
2013-11-3,44.8,38.6,33.3,32.4,20.3,2.3,94,51,19,30.16,30.08,16,5,0,0.04
2013-11-4,49.6,41.1,34.8,32.5,23.7,12.1,87,52,25,30.18,30.13,13,2,0,0.00
2013-11-5,54.2,47.2,40.7,36.0,28.1,22.7,63,48,34,30.23,30.15,15,7,0,0.00
2013-11-6,56.0,48.5,42.3,46.0,36.6,24.9,100,65,38,30.30,30.18,10,3,0,0.00
2013-11-7,54.1,45.8,41.4,47.8,28.7,7.4,100,58,20,30.18,29.95,18,6,0,0.08
2013-11-8,49.8,42.9,36.2,36.5,22.3,6.4,96,47,18,30.19,30.14,13,2,0,0.00
2013-11-9,43.4,37.7,30.2,35.6,28.0,20.4,100,72,41,30.18,30.12,4,1,0,0.00
2013-11-10,51.2,42.4,35.4,40.1,32.2,20.9,100,71,36,30.23,30.14,6,1,0,0.00
2013-11-11,43.7,40.7,38.4,41.2,35.8,30.6,100,84,62,30.32,30.22,9,1,0,0.00
2013-11-12,61.1,46.2,39.8,44.3,34.5,24.6,100,67,29,30.43,30.23,9,1,0,0.00
2013-11-13,57.2,42.4,33.8,44.2,32.9,21.0,100,75,29,30.48,30.31,7,1,0,0.00
2013-11-14,45.3,37.2,31.5,35.5,27.5,17.1,100,73,33,30.31,30.11,7,1,0,0.00
2013-11-15,44.6,35.8,27.1,32.7,22.2,11.7,100,63,29,30.13,29.58,21,5,0,0.00
2013-11-16,45.9,41.6,38.1,26.8,19.7,9.3,58,42,24,29.89,29.54,22,8,0,0.00
2013-11-17,51.8,43.9,39.5,23.1,18.4,9.8,49,37,20,30.07,29.89,22,8,0,0.00
2013-11-18,53.4,46.4,40.0,27.6,18.6,10.9,47,33,18,30.06,29.83,15,6,0,0.00
2013-11-19,53.3,47.5,38.6,40.2,30.3,23.4,80,52,35,29.94,29.79,14,7,0,0.00
2013-11-20,38.9,32.5,21.7,29.2,-1.6,-23.0,69,28,8,30.47,29.94,19,7,0,0.00
2013-11-21,33.9,24.1,15.5,9.0,-4.4,-23.6,67,34,9,30.72,30.47,10,1,0,1.00
2013-11-22,32.4,23.0,13.9,15.9,0.9,-20.3,92,45,10,30.77,30.61,10,1,0,0.00
2013-11-23,33.6,24.1,14.9,20.8,9.8,-12.2,100,62,13,30.65,30.39,5,1,0,0.00
2013-11-24,42.0,28.3,17.0,25.0,12.6,-9.8,100,62,11,30.40,30.24,5,1,0,0.00
2013-11-25,42.6,30.4,20.5,28.6,16.8,-2.1,100,66,17,30.48,30.34,6,1,0,0.00
2013-11-26,40.1,30.6,23.1,28.3,18.8,3.1,100,69,22,30.40,30.20,5,1,0,0.00
2013-11-27,39.4,30.4,25.1,29.3,22.0,11.0,100,76,35,30.23,30.12,5,0,0,0.00
2013-11-28,41.6,30.7,22.9,30.7,21.4,10.0,100,74,28,30.27,30.16,6,1,0,0.00
2013-11-29,49.1,36.0,24.0,29.6,19.9,4.9,100,60,18,30.34,30.22,7,1,0,0.00
2013-11-30,56.8,46.6,37.5,35.0,16.4,-11.4,88,39,7,30.38,30.23,10,2,0,0.00
2013-12-1,60.5,53.5,46.3,38.4,26.6,15.0,71,36,24,30.23,29.91,31,12,0,1.00
2013-12-2,46.6,38.6,29.1,39.5,18.7,-14.2,90,47,10,30.05,29.87,29,7,0,0.43
2013-12-3,29.7,24.2,15.6,27.2,11.4,-12.9,100,62,18,30.30,30.04,19,3,0,0.00
2013-12-4,24.9,16.4,10.4,8.6,-2.0,-25.2,79,50,11,30.38,30.28,8,2,0,0.00
2013-12-5,22.6,13.4,4.8,9.9,0.0,-14.5,94,57,22,30.38,30.19,10,2,0,0.00
2013-12-6,13.6,12.0,10.9,9.3,6.1,2.9,86,77,64,30.25,30.10,21,7,0,1.00
2013-12-7,12.5,6.0,-3.7,6.3,-6.5,-26.2,94,60,17,30.52,30.16,20,6,0,0.00
2013-12-8,10.3,1.6,-8.9,5.7,-5.2,-15.5,97,73,47,30.65,30.43,13,2,0,0.00
2013-12-9,26.2,15.4,4.2,18.3,1.9,-20.0,100,59,12,30.65,30.44,21,2,0,0.00
2013-12-10,32.4,21.3,14.5,23.0,16.3,7.5,100,83,39,30.49,30.39,7,0,0,0.00
2013-12-11,36.5,23.7,15.8,28.2,17.9,9.0,100,81,41,30.46,30.31,6,1,0,0.00
2013-12-12,45.4,35.2,24.2,24.4,10.4,-5.8,74,38,13,30.31,30.15,15,5,0,0.00
2013-12-13,52.6,38.4,30.2,33.8,23.2,11.7,98,57,25,30.48,30.21,16,5,0,0.00
2013-12-14,47.5,39.3,29.3,34.3,20.2,12.3,100,52,25,30.49,30.37,21,5,0,0.00
2013-12-15,57.9,44.3,32.2,34.7,20.0,5.0,100,42,14,30.45,30.33,20,5,0,1.00
2013-12-16,50.5,36.1,28.0,33.6,25.7,13.2,100,70,30,30.50,30.36,7,1,0,0.00
2013-12-17,53.4,37.9,29.0,27.0,19.1,7.3,86,49,20,30.36,30.15,6,1,0,1.00
2013-12-18,41.6,37.7,31.4,26.4,20.1,13.7,72,49,36,30.16,30.00,19,3,0,0.00
2013-12-19,39.3,28.6,22.2,14.1,1.7,-22.8,65,35,8,30.31,30.10,15,4,0,0.00
2013-12-20,48.8,35.5,21.9,29.0,14.1,-3.1,62,42,26,30.20,29.82,25,9,0,0.00
2013-12-21,54.2,45.8,41.9,26.5,21.7,12.8,51,39,22,30.19,29.89,15,4,0,0.00
2013-12-22,49.8,45.6,39.7,32.5,26.1,21.9,74,47,38,30.35,30.18,11,3,0,1.00
2013-12-23,56.2,48.0,36.5,28.3,21.4,8.9,63,36,18,30.51,30.23,21,9,0,0.00
2013-12-24,47.7,34.9,26.2,33.8,23.7,12.7,100,68,27,30.61,30.47,9,1,0,0.00
2013-12-25,42.2,33.6,26.8,29.8,21.7,11.0,92,64,35,30.53,30.38,7,1,0,0.00
2013-12-26,52.0,36.3,27.0,30.2,22.0,-3.1,100,62,10,30.44,30.26,8,1,0,0.00
2013-12-27,50.6,39.1,27.9,30.6,13.9,-8.1,99,44,10,30.33,30.17,19,3,0,0.00
2013-12-28,51.2,34.5,25.2,26.5,18.7,5.3,93,56,22,30.51,30.32,7,1,0,0.00
2013-12-29,45.6,33.8,25.4,24.4,12.9,-10.5,90,47,9,30.50,30.30,14,1,0,0.00
2013-12-30,52.3,41.6,33.5,21.7,9.8,-14.2,60,31,7,30.31,30.19,13,3,0,0.00
2013-12-31,52.0,45.7,35.9,26.7,5.4,-13.4,62,22,7,30.37,30.20,15,6,0,0.00
2014-1-1,46.2,36.7,29.6,32.7,25.2,11.0,99,66,31,30.43,30.30,7,1,0,0.00
2014-1-2,57.2,42.6,27.6,32.7,16.2,-9.2,100,51,7,30.35,30.04,29,5,0,0.00